Weather at Aeródromo forestal de Enguera

Public forecast

Using degrees Celsius for public forecast. Weather courtesy of forecast.io.

Closest aviation weather report (METAR) to Aeródromo forestal de Enguera

Closest report is Valencia Airport, 35.4 nm (65.6 km) NNE. Retrieved 2021/06/19 22:00 UTC (5 minutes ago):

LEVC 192200Z 22003KT 180V260 9999 FEW015 22/20 Q1014 NOSIG

Closest aviation forecast (TAF) to Aeródromo forestal de Enguera

Closest forecast is Valencia Airport, 35.4 nm (65.6 km) NNE. Retrieved 2021/06/19 18:27 UTC (4 hours ago):

TAF LEVC 191700Z 1918/2018 VRB05KT 9999 FEW020 TX32/2012Z TN18/2006Z PROB30 TEMPO 1922/2004 4000 TSRA FEW050CB